sensor_id;sensor_type;location;lat;lon;timestamp;pressure;altitude;pressure_sealevel;temperature;humidity
62548;BME280;48602;45.192;5.722;2023-05-13T00:00:03;98998.94;;;14.05;88.54
62548;BME280;48602;45.192;5.722;2023-05-13T00:02:28;98986.56;;;14.05;88.18
62548;BME280;48602;45.192;5.722;2023-05-13T00:04:53;98984.66;;;14.07;87.62
62548;BME280;48602;45.192;5.722;2023-05-13T00:07:19;98990.78;;;14.08;87.94
62548;BME280;48602;45.192;5.722;2023-05-13T00:09:44;98992.50;;;14.09;87.48
62548;BME280;48602;45.192;5.722;2023-05-13T00:12:10;98992.34;;;14.12;87.26
62548;BME280;48602;45.192;5.722;2023-05-13T00:14:35;98996.88;;;14.10;87.35
62548;BME280;48602;45.192;5.722;2023-05-13T00:17:01;99001.06;;;14.14;86.86
62548;BME280;48602;45.192;5.722;2023-05-13T00:19:29;99003.63;;;14.15;87.07
62548;BME280;48602;45.192;5.722;2023-05-13T00:21:54;98994.06;;;14.13;86.54
62548;BME280;48602;45.192;5.722;2023-05-13T00:24:19;98996.69;;;14.13;86.15
62548;BME280;48602;45.192;5.722;2023-05-13T00:26:46;98995.94;;;14.11;85.58
62548;BME280;48602;45.192;5.722;2023-05-13T00:29:11;98988.25;;;14.06;85.39
62548;BME280;48602;45.192;5.722;2023-05-13T00:31:36;98988.25;;;14.06;85.19
62548;BME280;48602;45.192;5.722;2023-05-13T00:34:02;98996.09;;;14.08;85.57
62548;BME280;48602;45.192;5.722;2023-05-13T00:36:28;98992.78;;;14.04;85.38
62548;BME280;48602;45.192;5.722;2023-05-13T00:38:53;98988.25;;;14.06;85.37
62548;BME280;48602;45.192;5.722;2023-05-13T00:41:19;98986.56;;;14.05;84.40
62548;BME280;48602;45.192;5.722;2023-05-13T00:43:45;98991.84;;;14.05;83.83
62548;BME280;48602;45.192;5.722;2023-05-13T00:46:11;98993.72;;;14.03;83.60
62548;BME280;48602;45.192;5.722;2023-05-13T00:48:37;98988.50;;;14.02;83.30
62548;BME280;48602;45.192;5.722;2023-05-13T00:51:03;98992.09;;;14.01;83.62
62548;BME280;48602;45.192;5.722;2023-05-13T00:53:31;98991.25;;;14.00;83.86
62548;BME280;48602;45.192;5.722;2023-05-13T00:55:57;98986.97;;;13.97;83.03
62548;BME280;48602;45.192;5.722;2023-05-13T00:58:22;98988.59;;;14.00;83.52
62548;BME280;48602;45.192;5.722;2023-05-13T01:04:03;98987.41;;;14.06;83.01
62548;BME280;48602;45.192;5.722;2023-05-13T01:12:15;98991.25;;;14.00;81.63
62548;BME280;48602;45.192;5.722;2023-05-13T01:14:52;98996.72;;;13.97;82.07
62548;BME280;48602;45.192;5.722;2023-05-13T01:17:23;98987.13;;;13.94;81.27
62548;BME280;48602;45.192;5.722;2023-05-13T01:19:57;98986.97;;;13.97;81.90
62548;BME280;48602;45.192;5.722;2023-05-13T01:22:24;98991.50;;;13.95;81.20
62548;BME280;48602;45.192;5.722;2023-05-13T01:24:50;98987.22;;;13.93;81.29
62548;BME280;48602;45.192;5.722;2023-05-13T01:27:16;98998.09;;;13.88;81.29
62548;BME280;48602;45.192;5.722;2023-05-13T01:29:42;98992.03;;;13.86;81.07
62548;BME280;48602;45.192;5.722;2023-05-13T01:32:09;98994.06;;;13.81;81.19
62548;BME280;48602;45.192;5.722;2023-05-13T01:34:37;98995.25;;;13.76;81.54
62548;BME280;48602;45.192;5.722;2023-05-13T01:37:03;98996.28;;;13.73;81.40
62548;BME280;48602;45.192;5.722;2023-05-13T01:39:30;98998.09;;;13.73;82.14
62548;BME280;48602;45.192;5.722;2023-05-13T01:41:56;98996.28;;;13.73;82.40
62548;BME280;48602;45.192;5.722;2023-05-13T01:44:22;98988.22;;;13.75;83.53
62548;BME280;48602;45.192;5.722;2023-05-13T01:46:47;98991.66;;;13.77;83.10
62548;BME280;48602;45.192;5.722;2023-05-13T01:49:15;98992.50;;;13.77;83.39
62548;BME280;48602;45.192;5.722;2023-05-13T01:51:40;98991.72;;;13.75;83.33
62548;BME280;48602;45.192;5.722;2023-05-13T01:54:06;98992.78;;;13.73;83.29
62548;BME280;48602;45.192;5.722;2023-05-13T01:56:31;98992.88;;;13.71;82.99
62548;BME280;48602;45.192;5.722;2023-05-13T01:58:57;99000.81;;;13.71;83.01
62548;BME280;48602;45.192;5.722;2023-05-13T02:01:22;98993.97;;;13.67;82.05
62548;BME280;48602;45.192;5.722;2023-05-13T02:03:48;99002.00;;;13.66;82.77
62548;BME280;48602;45.192;5.722;2023-05-13T02:06:13;99006.53;;;13.63;82.08
62548;BME280;48602;45.192;5.722;2023-05-13T02:08:39;99003.00;;;13.63;82.56
62548;BME280;48602;45.192;5.722;2023-05-13T02:11:04;99001.38;;;13.60;83.03
62548;BME280;48602;45.192;5.722;2023-05-13T02:13:29;99004.09;;;13.59;83.46
62548;BME280;48602;45.192;5.722;2023-05-13T02:15:55;99002.50;;;13.56;83.41
62548;BME280;48602;45.192;5.722;2023-05-13T02:18:20;99005.16;;;13.56;83.41
62548;BME280;48602;45.192;5.722;2023-05-13T02:20:46;99000.03;;;13.53;83.09
62548;BME280;48602;45.192;5.722;2023-05-13T02:23:12;99008.03;;;13.52;82.99
62548;BME280;48602;45.192;5.722;2023-05-13T02:25:40;99008.03;;;13.52;83.25
62548;BME280;48602;45.192;5.722;2023-05-13T02:28:06;99017.78;;;13.51;83.21
62548;BME280;48602;45.192;5.722;2023-05-13T02:30:31;99015.13;;;13.51;82.88
62548;BME280;48602;45.192;5.722;2023-05-13T02:32:57;99013.41;;;13.50;82.91
62548;BME280;48602;45.192;5.722;2023-05-13T02:35:22;99008.97;;;13.51;82.69
62548;BME280;48602;45.192;5.722;2023-05-13T02:37:49;99013.41;;;13.50;83.10
62548;BME280;48602;45.192;5.722;2023-05-13T02:40:15;99013.41;;;13.50;83.19
62548;BME280;48602;45.192;5.722;2023-05-13T02:42:40;99010.78;;;13.50;82.58
62548;BME280;48602;45.192;5.722;2023-05-13T02:45:08;99019.56;;;13.51;82.60
62548;BME280;48602;45.192;5.722;2023-05-13T02:47:33;99013.41;;;13.50;83.08
62548;BME280;48602;45.192;5.722;2023-05-13T02:49:59;99013.41;;;13.50;83.52
62548;BME280;48602;45.192;5.722;2023-05-13T02:52:24;99015.28;;;13.48;83.37
62548;BME280;48602;45.192;5.722;2023-05-13T02:54:49;99014.34;;;13.49;83.27
62548;BME280;48602;45.192;5.722;2023-05-13T02:57:15;99021.53;;;13.47;82.75
62548;BME280;48602;45.192;5.722;2023-05-13T02:59:40;99022.47;;;13.46;83.01
62548;BME280;48602;45.192;5.722;2023-05-13T03:02:06;99018.19;;;13.44;82.40
62548;BME280;48602;45.192;5.722;2023-05-13T03:04:31;99024.41;;;13.43;82.79
62548;BME280;48602;45.192;5.722;2023-05-13T03:06:57;99028.00;;;13.42;82.54
62548;BME280;48602;45.192;5.722;2023-05-13T03:09:22;99029.03;;;13.39;82.71
62548;BME280;48602;45.192;5.722;2023-05-13T03:11:48;99036.06;;;13.40;82.82
62548;BME280;48602;45.192;5.722;2023-05-13T03:14:13;99026.56;;;13.36;82.75
62548;BME280;48602;45.192;5.722;2023-05-13T03:16:38;99031.16;;;13.33;82.79
62548;BME280;48602;45.192;5.722;2023-05-13T03:19:04;99035.59;;;13.32;82.44
62548;BME280;48602;45.192;5.722;2023-05-13T03:21:29;99024.22;;;13.30;82.06
62548;BME280;48602;45.192;5.722;2023-05-13T03:23:55;99032.31;;;13.27;82.31
62548;BME280;48602;45.192;5.722;2023-05-13T03:26:20;99032.31;;;13.27;82.00
62548;BME280;48602;45.192;5.722;2023-05-13T03:28:46;99036.81;;;13.25;81.68
62548;BME280;48602;45.192;5.722;2023-05-13T03:31:11;99025.50;;;13.23;81.85
62548;BME280;48602;45.192;5.722;2023-05-13T03:33:37;99036.06;;;13.23;82.15
62548;BME280;48602;45.192;5.722;2023-05-13T03:36:03;99033.50;;;13.21;82.32
62548;BME280;48602;45.192;5.722;2023-05-13T03:38:28;99031.72;;;13.22;82.35
62548;BME280;48602;45.192;5.722;2023-05-13T03:40:54;99032.72;;;13.19;82.28
62548;BME280;48602;45.192;5.722;2023-05-13T03:43:19;99032.97;;;13.15;81.92
62548;BME280;48602;45.192;5.722;2023-05-13T03:45:45;99031.28;;;13.12;82.12
62548;BME280;48602;45.192;5.722;2023-05-13T03:48:12;99034.78;;;13.13;82.54
62548;BME280;48602;45.192;5.722;2023-05-13T03:50:38;99037.50;;;13.11;82.12
62548;BME280;48602;45.192;5.722;2023-05-13T03:53:03;99039.47;;;13.08;81.74
62548;BME280;48602;45.192;5.722;2023-05-13T03:55:28;99037.00;;;13.05;81.52
62548;BME280;48602;45.192;5.722;2023-05-13T03:57:54;99031.78;;;13.03;81.91
62548;BME280;48602;45.192;5.722;2023-05-13T04:00:19;99044.94;;;13.05;82.26
62548;BME280;48602;45.192;5.722;2023-05-13T04:02:45;99045.78;;;13.05;82.20
62548;BME280;48602;45.192;5.722;2023-05-13T04:05:10;99045.88;;;13.04;82.04
62548;BME280;48602;45.192;5.722;2023-05-13T04:07:38;99044.84;;;13.06;82.01
62548;BME280;48602;45.192;5.722;2023-05-13T04:10:03;99042.22;;;13.06;82.33
62548;BME280;48602;45.192;5.722;2023-05-13T04:12:29;99049.38;;;13.04;81.52
62548;BME280;48602;45.192;5.722;2023-05-13T04:14:55;99043.28;;;13.02;81.57
62548;BME280;48602;45.192;5.722;2023-05-13T04:17:20;99050.31;;;13.03;81.35
62548;BME280;48602;45.192;5.722;2023-05-13T04:19:46;99053.81;;;13.04;81.70
62548;BME280;48602;45.192;5.722;2023-05-13T04:22:11;99051.22;;;13.02;81.61
62548;BME280;48602;45.192;5.722;2023-05-13T04:24:36;99056.59;;;13.01;81.13
62548;BME280;48602;45.192;5.722;2023-05-13T04:27:02;99054.97;;;12.98;80.94
62548;BME280;48602;45.192;5.722;2023-05-13T04:29:27;99062.13;;;12.96;81.46
62548;BME280;48602;45.192;5.722;2023-05-13T04:31:53;99063.06;;;12.95;81.83
62548;BME280;48602;45.192;5.722;2023-05-13T04:34:18;99063.91;;;12.96;81.65
62548;BME280;48602;45.192;5.722;2023-05-13T04:36:43;99073.56;;;12.97;81.51
62548;BME280;48602;45.192;5.722;2023-05-13T04:39:10;99073.63;;;12.95;81.68
62548;BME280;48602;45.192;5.722;2023-05-13T04:41:36;99079.00;;;12.93;81.96
62548;BME280;48602;45.192;5.722;2023-05-13T04:44:04;99074.72;;;12.91;81.76
62548;BME280;48602;45.192;5.722;2023-05-13T04:46:31;99075.69;;;12.90;82.17
62548;BME280;48602;45.192;5.722;2023-05-13T04:48:56;99074.72;;;12.91;82.60
62548;BME280;48602;45.192;5.722;2023-05-13T04:51:21;99079.78;;;12.96;83.05
62548;BME280;48602;45.192;5.722;2023-05-13T04:53:47;99080.56;;;12.98;83.44
62548;BME280;48602;45.192;5.722;2023-05-13T04:56:12;99088.44;;;12.99;82.51
62548;BME280;48602;45.192;5.722;2023-05-13T04:58:38;99090.06;;;13.02;82.54
62548;BME280;48602;45.192;5.722;2023-05-13T05:01:03;99092.56;;;13.05;81.96
62548;BME280;48602;45.192;5.722;2023-05-13T05:03:29;99086.34;;;13.06;82.18
62548;BME280;48602;45.192;5.722;2023-05-13T05:05:54;99094.09;;;13.09;82.52
62548;BME280;48602;45.192;5.722;2023-05-13T05:08:19;99095.66;;;13.13;82.83
62548;BME280;48602;45.192;5.722;2023-05-13T05:10:47;99086.75;;;13.15;82.26
62548;BME280;48602;45.192;5.722;2023-05-13T05:13:13;99092.84;;;13.17;82.37
62548;BME280;48602;45.192;5.722;2023-05-13T05:15:38;99089.25;;;13.18;82.37
62548;BME280;48602;45.192;5.722;2023-05-13T05:18:03;99096.34;;;13.18;81.26
62548;BME280;48602;45.192;5.722;2023-05-13T05:20:30;99093.75;;;13.16;80.79
62548;BME280;48602;45.192;5.722;2023-05-13T05:22:56;99097.28;;;13.17;80.93
62548;BME280;48602;45.192;5.722;2023-05-13T05:25:21;99099.75;;;13.20;81.40
62548;BME280;48602;45.192;5.722;2023-05-13T05:27:48;99105.75;;;13.23;81.75
62548;BME280;48602;45.192;5.722;2023-05-13T05:30:14;99095.69;;;13.30;81.65
62548;BME280;48602;45.192;5.722;2023-05-13T05:32:40;99108.63;;;13.36;81.30
62548;BME280;48602;45.192;5.722;2023-05-13T05:35:05;99102.06;;;13.43;81.24
62548;BME280;48602;45.192;5.722;2023-05-13T05:37:32;99108.63;;;13.53;80.95
62548;BME280;48602;45.192;5.722;2023-05-13T05:39:57;99112.63;;;13.60;80.38
62548;BME280;48602;45.192;5.722;2023-05-13T05:42:23;99103.53;;;13.66;79.94
62548;BME280;48602;45.192;5.722;2023-05-13T05:44:48;99098.00;;;13.71;80.34
62548;BME280;48602;45.192;5.722;2023-05-13T05:47:13;99107.47;;;13.75;80.30
62548;BME280;48602;45.192;5.722;2023-05-13T05:49:39;99104.56;;;13.79;81.25
62548;BME280;48602;45.192;5.722;2023-05-13T05:52:04;99106.06;;;13.85;81.12
62548;BME280;48602;45.192;5.722;2023-05-13T05:54:30;99103.16;;;13.89;80.86
62548;BME280;48602;45.192;5.722;2023-05-13T05:56:55;99104.59;;;13.95;80.48
62548;BME280;48602;45.192;5.722;2023-05-13T05:59:21;99114.03;;;14.01;80.49
62548;BME280;48602;45.192;5.722;2023-05-13T06:01:46;99111.13;;;14.05;80.54
62548;BME280;48602;45.192;5.722;2023-05-13T06:04:11;99114.44;;;14.09;80.28
62548;BME280;48602;45.192;5.722;2023-05-13T06:06:37;99120.38;;;14.14;79.93
62548;BME280;48602;45.192;5.722;2023-05-13T06:09:04;99116.63;;;14.18;79.68
62548;BME280;48602;45.192;5.722;2023-05-13T06:11:29;99120.91;;;14.20;79.56
62548;BME280;48602;45.192;5.722;2023-05-13T06:13:55;99121.47;;;14.25;79.80
62548;BME280;48602;45.192;5.722;2023-05-13T06:16:22;99123.88;;;14.30;79.71
62548;BME280;48602;45.192;5.722;2023-05-13T06:18:47;99121.78;;;14.37;79.82
62548;BME280;48602;45.192;5.722;2023-05-13T06:21:13;99130.34;;;14.42;79.52
62548;BME280;48602;45.192;5.722;2023-05-13T06:23:38;99127.53;;;14.45;79.77
62548;BME280;48602;45.192;5.722;2023-05-13T06:26:04;99129.06;;;14.49;79.23
62548;BME280;48602;45.192;5.722;2023-05-13T06:28:29;99132.41;;;14.52;78.55
62548;BME280;48602;45.192;5.722;2023-05-13T06:30:55;99131.56;;;14.52;78.66
62548;BME280;48602;45.192;5.722;2023-05-13T06:33:20;99136.09;;;14.50;77.87
62548;BME280;48602;45.192;5.722;2023-05-13T06:35:46;99127.59;;;14.43;77.16
62548;BME280;48602;45.192;5.722;2023-05-13T06:38:14;99137.69;;;14.37;77.07
62548;BME280;48602;45.192;5.722;2023-05-13T06:40:42;99132.47;;;14.35;76.65
62548;BME280;48602;45.192;5.722;2023-05-13T06:43:08;99137.06;;;14.31;76.72
62548;BME280;48602;45.192;5.722;2023-05-13T06:45:33;99132.88;;;14.27;76.58
62548;BME280;48602;45.192;5.722;2023-05-13T06:47:58;99133.03;;;14.24;76.32
62548;BME280;48602;45.192;5.722;2023-05-13T06:50:24;99138.69;;;14.18;76.38
62548;BME280;48602;45.192;5.722;2023-05-13T06:52:49;99141.50;;;14.15;77.00
62548;BME280;48602;45.192;5.722;2023-05-13T06:55:15;99139.72;;;14.16;76.65
62548;BME280;48602;45.192;5.722;2023-05-13T06:57:43;99139.72;;;14.16;76.54
62548;BME280;48602;45.192;5.722;2023-05-13T07:00:15;99145.16;;;14.13;76.82
62548;BME280;48602;45.192;5.722;2023-05-13T07:02:41;99143.47;;;14.12;77.36
62548;BME280;48602;45.192;5.722;2023-05-13T07:05:08;99148.75;;;14.12;77.66
62548;BME280;48602;45.192;5.722;2023-05-13T07:07:34;99138.06;;;14.13;77.58
62548;BME280;48602;45.192;5.722;2023-05-13T07:09:59;99141.59;;;14.14;76.93
62548;BME280;48602;45.192;5.722;2023-05-13T07:12:25;99149.69;;;14.11;76.86
62548;BME280;48602;45.192;5.722;2023-05-13T07:14:50;99149.03;;;14.07;76.73
62548;BME280;48602;45.192;5.722;2023-05-13T07:17:16;99149.03;;;14.07;77.27
62548;BME280;48602;45.192;5.722;2023-05-13T07:19:41;99150.63;;;14.10;77.20
62548;BME280;48602;45.192;5.722;2023-05-13T07:22:07;99145.09;;;14.14;76.75
62548;BME280;48602;45.192;5.722;2023-05-13T07:24:32;99144.16;;;14.15;76.50
62548;BME280;48602;45.192;5.722;2023-05-13T07:26:58;99144.16;;;14.15;76.39
62548;BME280;48602;45.192;5.722;2023-05-13T07:29:23;99148.19;;;14.22;76.17
62548;BME280;48602;45.192;5.722;2023-05-13T07:31:49;99154.63;;;14.34;76.35
62548;BME280;48602;45.192;5.722;2023-05-13T07:34:14;99148.56;;;14.48;76.38
62548;BME280;48602;45.192;5.722;2023-05-13T07:36:40;99153.63;;;14.68;76.40
62548;BME280;48602;45.192;5.722;2023-05-13T07:39:05;99150.63;;;14.90;75.80
62548;BME280;48602;45.192;5.722;2023-05-13T07:41:33;99139.69;;;15.10;75.80
62548;BME280;48602;45.192;5.722;2023-05-13T07:43:58;99143.44;;;15.22;75.08
62548;BME280;48602;45.192;5.722;2023-05-13T07:46:23;99149.25;;;15.28;73.80
62548;BME280;48602;45.192;5.722;2023-05-13T07:48:49;99141.69;;;15.36;74.29
62548;BME280;48602;45.192;5.722;2023-05-13T07:51:14;99136.50;;;15.49;73.94
62548;BME280;48602;45.192;5.722;2023-05-13T07:53:42;99138.81;;;15.55;71.65
62548;BME280;48602;45.192;5.722;2023-05-13T07:56:09;99135.03;;;15.44;72.17
62548;BME280;48602;45.192;5.722;2023-05-13T07:58:35;99141.31;;;15.43;73.15
62548;BME280;48602;45.192;5.722;2023-05-13T08:01:01;99132.13;;;15.48;73.61
62548;BME280;48602;45.192;5.722;2023-05-13T08:03:28;99140.59;;;15.55;73.30
62548;BME280;48602;45.192;5.722;2023-05-13T08:05:53;99136.22;;;15.54;73.18
62548;BME280;48602;45.192;5.722;2023-05-13T08:08:18;99134.50;;;15.53;72.57
62548;BME280;48602;45.192;5.722;2023-05-13T08:10:44;99128.34;;;15.52;72.67
62548;BME280;48602;45.192;5.722;2023-05-13T08:13:09;99135.22;;;15.56;72.73
62548;BME280;48602;45.192;5.722;2023-05-13T08:15:34;99135.22;;;15.56;72.87
62548;BME280;48602;45.192;5.722;2023-05-13T08:18:01;99140.44;;;15.58;72.91
62548;BME280;48602;45.192;5.722;2023-05-13T08:20:26;99141.41;;;15.57;73.70
62548;BME280;48602;45.192;5.722;2023-05-13T08:22:57;99144.13;;;15.55;74.03
62548;BME280;48602;45.192;5.722;2023-05-13T08:25:23;99140.69;;;15.53;73.39
62548;BME280;48602;45.192;5.722;2023-05-13T08:27:48;99144.28;;;15.52;73.52
62548;BME280;48602;45.192;5.722;2023-05-13T08:30:14;99143.00;;;15.44;73.78
62548;BME280;48602;45.192;5.722;2023-05-13T08:32:39;99147.00;;;15.36;74.38
62548;BME280;48602;45.192;5.722;2023-05-13T08:35:05;99148.72;;;15.38;74.38
62548;BME280;48602;45.192;5.722;2023-05-13T08:37:30;99142.53;;;15.37;74.51
62548;BME280;48602;45.192;5.722;2023-05-13T08:39:56;99140.84;;;15.36;74.95
62548;BME280;48602;45.192;5.722;2023-05-13T08:42:27;99143.50;;;15.36;73.42
62548;BME280;48602;45.192;5.722;2023-05-13T08:44:53;99144.53;;;15.33;73.38
62548;BME280;48602;45.192;5.722;2023-05-13T08:49:55;99135.97;;;15.28;74.14
62548;BME280;48602;45.192;5.722;2023-05-13T08:52:21;99135.88;;;15.30;74.86
62548;BME280;48602;45.192;5.722;2023-05-13T08:54:48;99140.84;;;15.36;74.44
62548;BME280;48602;45.192;5.722;2023-05-13T08:57:13;99138.00;;;15.39;74.60
62548;BME280;48602;45.192;5.722;2023-05-13T08:59:39;99121.59;;;15.47;74.71
62548;BME280;48602;45.192;5.722;2023-05-13T09:02:05;99128.25;;;15.54;75.36
62548;BME280;48602;45.192;5.722;2023-05-13T09:04:31;99137.66;;;15.59;75.78
62548;BME280;48602;45.192;5.722;2023-05-13T09:07:03;99124.19;;;15.62;75.76
62548;BME280;48602;45.192;5.722;2023-05-13T09:09:29;99124.88;;;15.66;76.21
62548;BME280;48602;45.192;5.722;2023-05-13T09:11:54;99117.09;;;15.77;76.05
62548;BME280;48602;45.192;5.722;2023-05-13T09:14:20;99121.88;;;15.86;75.63
62548;BME280;48602;45.192;5.722;2023-05-13T09:16:46;99113.59;;;15.91;75.43
62548;BME280;48602;45.192;5.722;2023-05-13T09:19:11;99107.81;;;15.98;75.33
62548;BME280;48602;45.192;5.722;2023-05-13T09:21:37;99112.44;;;16.09;74.54
62548;BME280;48602;45.192;5.722;2023-05-13T09:24:08;99117.47;;;16.14;72.01
62548;BME280;48602;45.192;5.722;2023-05-13T09:26:35;99099.91;;;16.11;70.94
62548;BME280;48602;45.192;5.722;2023-05-13T09:29:25;99095.75;;;16.07;70.12
62548;BME280;48602;45.192;5.722;2023-05-13T09:31:55;99101.44;;;16.01;70.31
62548;BME280;48602;45.192;5.722;2023-05-13T09:34:33;99103.72;;;15.93;67.70
62548;BME280;48602;45.192;5.722;2023-05-13T09:37:06;99096.59;;;15.93;69.52
62548;BME280;48602;45.192;5.722;2023-05-13T09:39:41;99096.59;;;15.93;67.02
62548;BME280;48602;45.192;5.722;2023-05-13T09:42:20;99101.72;;;15.96;68.21
62548;BME280;48602;45.192;5.722;2023-05-13T09:44:46;99090.81;;;16.01;66.78
62548;BME280;48602;45.192;5.722;2023-05-13T09:47:15;99091.38;;;16.06;63.42
62548;BME280;48602;45.192;5.722;2023-05-13T09:49:42;99105.69;;;16.18;65.40
62548;BME280;48602;45.192;5.722;2023-05-13T09:52:08;99097.78;;;16.30;63.59
62548;BME280;48602;45.192;5.722;2023-05-13T09:54:36;99102.22;;;16.44;62.56
62548;BME280;48602;45.192;5.722;2023-05-13T09:57:02;99102.41;;;16.55;62.22
62548;BME280;48602;45.192;5.722;2023-05-13T09:59:31;99084.16;;;16.63;63.16
62548;BME280;48602;45.192;5.722;2023-05-13T10:01:59;99098.13;;;16.67;60.21
62548;BME280;48602;45.192;5.722;2023-05-13T10:04:25;99108.75;;;16.67;58.08
62548;BME280;48602;45.192;5.722;2023-05-13T10:06:50;99093.53;;;16.69;57.79
62548;BME280;48602;45.192;5.722;2023-05-13T10:09:16;99102.00;;;16.76;57.39
62548;BME280;48602;45.192;5.722;2023-05-13T10:11:45;99107.84;;;16.81;57.75
62548;BME280;48602;45.192;5.722;2023-05-13T10:14:12;99101.19;;;16.88;58.98
62548;BME280;48602;45.192;5.722;2023-05-13T10:16:37;99109.31;;;16.99;57.89
62548;BME280;48602;45.192;5.722;2023-05-13T10:19:05;99081.94;;;17.09;58.48
62548;BME280;48602;45.192;5.722;2023-05-13T10:21:30;99105.22;;;17.20;55.45
62548;BME280;48602;45.192;5.722;2023-05-13T10:23:57;99105.63;;;17.27;56.14
62548;BME280;48602;45.192;5.722;2023-05-13T10:26:23;99089.53;;;17.28;55.53
62548;BME280;48602;45.192;5.722;2023-05-13T10:28:49;99120.47;;;17.31;55.30
62548;BME280;48602;45.192;5.722;2023-05-13T10:31:16;99107.44;;;17.26;56.00
62548;BME280;48602;45.192;5.722;2023-05-13T10:33:41;99107.69;;;17.23;56.37
62548;BME280;48602;45.192;5.722;2023-05-13T10:39:29;99100.19;;;17.28;55.93
62548;BME280;48602;45.192;5.722;2023-05-13T10:44:42;99095.63;;;17.30;56.89
62548;BME280;48602;45.192;5.722;2023-05-13T10:47:08;99131.78;;;17.34;54.67
62548;BME280;48602;45.192;5.722;2023-05-13T10:49:34;99099.81;;;17.34;54.56
62548;BME280;48602;45.192;5.722;2023-05-13T10:52:08;99118.56;;;17.33;55.44
62548;BME280;48602;45.192;5.722;2023-05-13T10:54:38;99094.38;;;17.36;54.85
62548;BME280;48602;45.192;5.722;2023-05-13T10:57:06;99090.84;;;17.35;54.81
62548;BME280;48602;45.192;5.722;2023-05-13T10:59:32;99087.22;;;17.36;54.89
62548;BME280;48602;45.192;5.722;2023-05-13T11:02:01;99095.44;;;17.33;55.39
62548;BME280;48602;45.192;5.722;2023-05-13T11:04:27;99112.47;;;17.31;55.53
62548;BME280;48602;45.192;5.722;2023-05-13T11:06:53;99083.47;;;17.26;55.41
62548;BME280;48602;45.192;5.722;2023-05-13T11:11:50;99078.56;;;17.20;56.22
62548;BME280;48602;45.192;5.722;2023-05-13T11:14:17;99078.88;;;17.16;56.87
62548;BME280;48602;45.192;5.722;2023-05-13T11:19:51;99088.47;;;17.18;57.79
62548;BME280;48602;45.192;5.722;2023-05-13T11:22:20;99081.88;;;17.24;57.47
62548;BME280;48602;45.192;5.722;2023-05-13T11:25:05;99082.41;;;17.29;57.43
62548;BME280;48602;45.192;5.722;2023-05-13T11:27:37;99063.13;;;17.38;56.44
62548;BME280;48602;45.192;5.722;2023-05-13T11:30:05;99067.16;;;17.43;56.22
62548;BME280;48602;45.192;5.722;2023-05-13T11:35:28;99067.06;;;17.45;56.25
62548;BME280;48602;45.192;5.722;2023-05-13T11:37:55;99058.88;;;17.48;55.87
62548;BME280;48602;45.192;5.722;2023-05-13T11:40:25;99064.31;;;17.47;56.10
62548;BME280;48602;45.192;5.722;2023-05-13T11:42:51;99075.31;;;17.42;56.25
62548;BME280;48602;45.192;5.722;2023-05-13T11:45:18;99077.63;;;17.34;56.31
62548;BME280;48602;45.192;5.722;2023-05-13T11:47:44;99069.09;;;17.29;56.64
62548;BME280;48602;45.192;5.722;2023-05-13T11:52:42;99090.94;;;17.21;56.40
62548;BME280;48602;45.192;5.722;2023-05-13T11:55:08;99074.09;;;17.21;56.84
62548;BME280;48602;45.192;5.722;2023-05-13T11:57:33;99067.91;;;17.20;57.38
62548;BME280;48602;45.192;5.722;2023-05-13T12:00:05;99073.88;;;17.24;58.15
62548;BME280;48602;45.192;5.722;2023-05-13T12:02:38;99096.16;;;17.23;57.37
62548;BME280;48602;45.192;5.722;2023-05-13T12:05:09;99067.16;;;17.18;57.91
62548;BME280;48602;45.192;5.722;2023-05-13T12:07:36;99071.09;;;17.13;58.63
62548;BME280;48602;45.192;5.722;2023-05-13T12:10:04;99076.50;;;17.11;59.56
62548;BME280;48602;45.192;5.722;2023-05-13T12:12:32;99068.63;;;17.09;59.48
62548;BME280;48602;45.192;5.722;2023-05-13T12:15:01;99073.44;;;17.04;60.31
62548;BME280;48602;45.192;5.722;2023-05-13T12:17:27;99055.63;;;17.05;59.86
62548;BME280;48602;45.192;5.722;2023-05-13T12:22:31;99078.66;;;17.06;60.75
62548;BME280;48602;45.192;5.722;2023-05-13T12:24:56;99071.72;;;17.03;60.98
62548;BME280;48602;45.192;5.722;2023-05-13T12:27:26;99053.28;;;17.00;60.08
62548;BME280;48602;45.192;5.722;2023-05-13T12:29:55;99063.16;;;16.98;60.23
62548;BME280;48602;45.192;5.722;2023-05-13T12:32:20;99063.94;;;17.00;60.18
62548;BME280;48602;45.192;5.722;2023-05-13T12:34:50;99060.97;;;17.05;59.93
62548;BME280;48602;45.192;5.722;2023-05-13T12:37:15;99069.91;;;17.04;59.51
62548;BME280;48602;45.192;5.722;2023-05-13T12:39:41;99045.84;;;17.05;59.71
62548;BME280;48602;45.192;5.722;2023-05-13T12:42:16;99065.13;;;17.09;59.39
62548;BME280;48602;45.192;5.722;2023-05-13T12:44:45;99064.78;;;17.14;58.73
62548;BME280;48602;45.192;5.722;2023-05-13T12:47:12;99058.41;;;17.16;59.10
62548;BME280;48602;45.192;5.722;2023-05-13T12:49:57;99052.69;;;17.22;58.46
62548;BME280;48602;45.192;5.722;2023-05-13T12:52:22;99052.25;;;17.28;59.40
62548;BME280;48602;45.192;5.722;2023-05-13T12:54:48;99043.53;;;17.39;59.36
62548;BME280;48602;45.192;5.722;2023-05-13T12:57:17;99052.69;;;17.48;59.84
62548;BME280;48602;45.192;5.722;2023-05-13T12:59:43;99065.16;;;17.47;59.98
62548;BME280;48602;45.192;5.722;2023-05-13T13:02:12;99055.44;;;17.46;59.75
62548;BME280;48602;45.192;5.722;2023-05-13T13:04:37;99067.91;;;17.45;60.27
62548;BME280;48602;45.192;5.722;2023-05-13T13:07:03;99070.06;;;17.40;60.08
62548;BME280;48602;45.192;5.722;2023-05-13T13:09:33;99073.25;;;17.33;59.48
62548;BME280;48602;45.192;5.722;2023-05-13T13:11:58;99051.19;;;17.31;59.73
62548;BME280;48602;45.192;5.722;2023-05-13T13:14:24;99052.13;;;17.30;59.45
62548;BME280;48602;45.192;5.722;2023-05-13T13:16:50;99066.41;;;17.29;58.90
62548;BME280;48602;45.192;5.722;2023-05-13T13:19:15;99055.75;;;17.29;59.04
62548;BME280;48602;45.192;5.722;2023-05-13T13:21:40;99049.47;;;17.30;58.56
62548;BME280;48602;45.192;5.722;2023-05-13T13:24:06;99055.44;;;17.33;59.13
62548;BME280;48602;45.192;5.722;2023-05-13T13:26:31;99053.34;;;17.38;58.67